sensor_id;sensor_type;location;lat;lon;timestamp;P1;durP1;ratioP1;P2;durP2;ratioP2
8536;SDS011;4306;50.210;10.628;2023-08-24T00:00:46;6.38;;;4.10;;
8536;SDS011;4306;50.210;10.628;2023-08-24T00:03:13;6.85;;;4.72;;
8536;SDS011;4306;50.210;10.628;2023-08-24T00:05:40;5.32;;;4.32;;
8536;SDS011;4306;50.210;10.628;2023-08-24T00:08:07;7.80;;;4.40;;
8536;SDS011;4306;50.210;10.628;2023-08-24T00:10:35;6.90;;;4.47;;
8536;SDS011;4306;50.210;10.628;2023-08-24T00:13:03;8.65;;;4.03;;
8536;SDS011;4306;50.210;10.628;2023-08-24T00:15:30;4.65;;;4.15;;
8536;SDS011;4306;50.210;10.628;2023-08-24T00:17:59;8.52;;;4.68;;
8536;SDS011;4306;50.210;10.628;2023-08-24T00:20:26;5.63;;;4.35;;
8536;SDS011;4306;50.210;10.628;2023-08-24T00:22:53;6.40;;;4.25;;
8536;SDS011;4306;50.210;10.628;2023-08-24T00:25:20;6.65;;;4.07;;
8536;SDS011;4306;50.210;10.628;2023-08-24T00:27:47;5.93;;;4.18;;
8536;SDS011;4306;50.210;10.628;2023-08-24T00:30:14;7.35;;;4.10;;
8536;SDS011;4306;50.210;10.628;2023-08-24T00:32:42;8.73;;;4.40;;
8536;SDS011;4306;50.210;10.628;2023-08-24T00:35:10;8.98;;;4.75;;
8536;SDS011;4306;50.210;10.628;2023-08-24T00:37:38;5.07;;;4.38;;
8536;SDS011;4306;50.210;10.628;2023-08-24T00:40:05;5.47;;;4.50;;
8536;SDS011;4306;50.210;10.628;2023-08-24T00:42:36;7.72;;;4.40;;
8536;SDS011;4306;50.210;10.628;2023-08-24T00:45:05;5.50;;;4.00;;
8536;SDS011;4306;50.210;10.628;2023-08-24T00:47:32;5.80;;;4.30;;
8536;SDS011;4306;50.210;10.628;2023-08-24T00:50:00;7.25;;;4.53;;
8536;SDS011;4306;50.210;10.628;2023-08-24T00:52:30;5.93;;;4.10;;
8536;SDS011;4306;50.210;10.628;2023-08-24T00:54:57;6.03;;;4.30;;
8536;SDS011;4306;50.210;10.628;2023-08-24T00:57:25;4.85;;;4.30;;
8536;SDS011;4306;50.210;10.628;2023-08-24T00:59:53;7.50;;;4.35;;
8536;SDS011;4306;50.210;10.628;2023-08-24T01:02:21;10.02;;;4.28;;
8536;SDS011;4306;50.210;10.628;2023-08-24T01:04:48;5.00;;;4.07;;
8536;SDS011;4306;50.210;10.628;2023-08-24T01:07:15;5.35;;;4.10;;
8536;SDS011;4306;50.210;10.628;2023-08-24T01:09:44;7.88;;;4.32;;
8536;SDS011;4306;50.210;10.628;2023-08-24T01:12:13;9.60;;;4.80;;
8536;SDS011;4306;50.210;10.628;2023-08-24T01:14:47;5.68;;;3.65;;
8536;SDS011;4306;50.210;10.628;2023-08-24T01:17:20;7.88;;;4.10;;
8536;SDS011;4306;50.210;10.628;2023-08-24T01:19:52;5.78;;;3.85;;
8536;SDS011;4306;50.210;10.628;2023-08-24T01:22:23;7.13;;;4.30;;
8536;SDS011;4306;50.210;10.628;2023-08-24T01:25:06;5.32;;;4.00;;
8536;SDS011;4306;50.210;10.628;2023-08-24T01:27:38;5.78;;;3.90;;
8536;SDS011;4306;50.210;10.628;2023-08-24T01:30:07;8.55;;;4.03;;
8536;SDS011;4306;50.210;10.628;2023-08-24T01:32:35;12.18;;;4.35;;
8536;SDS011;4306;50.210;10.628;2023-08-24T01:35:03;4.85;;;4.10;;
8536;SDS011;4306;50.210;10.628;2023-08-24T01:37:32;5.13;;;4.20;;
8536;SDS011;4306;50.210;10.628;2023-08-24T01:40:00;6.30;;;4.40;;
8536;SDS011;4306;50.210;10.628;2023-08-24T01:42:34;4.97;;;4.47;;
8536;SDS011;4306;50.210;10.628;2023-08-24T01:45:05;6.25;;;4.65;;
8536;SDS011;4306;50.210;10.628;2023-08-24T01:47:34;6.90;;;4.30;;
8536;SDS011;4306;50.210;10.628;2023-08-24T01:50:03;6.03;;;3.78;;
8536;SDS011;4306;50.210;10.628;2023-08-24T01:52:31;7.47;;;4.03;;
8536;SDS011;4306;50.210;10.628;2023-08-24T01:54:58;7.10;;;4.35;;
8536;SDS011;4306;50.210;10.628;2023-08-24T01:57:25;6.47;;;4.85;;
8536;SDS011;4306;50.210;10.628;2023-08-24T01:59:52;6.85;;;4.88;;
8536;SDS011;4306;50.210;10.628;2023-08-24T02:02:21;8.35;;;4.32;;
8536;SDS011;4306;50.210;10.628;2023-08-24T02:04:49;5.40;;;4.90;;
8536;SDS011;4306;50.210;10.628;2023-08-24T02:07:16;5.38;;;4.80;;
8536;SDS011;4306;50.210;10.628;2023-08-24T02:09:43;6.63;;;4.97;;
8536;SDS011;4306;50.210;10.628;2023-08-24T02:12:10;5.18;;;4.65;;
8536;SDS011;4306;50.210;10.628;2023-08-24T02:14:37;8.10;;;5.25;;
8536;SDS011;4306;50.210;10.628;2023-08-24T02:17:04;6.57;;;4.93;;
8536;SDS011;4306;50.210;10.628;2023-08-24T02:19:32;6.95;;;4.65;;
8536;SDS011;4306;50.210;10.628;2023-08-24T02:21:59;5.57;;;4.93;;
8536;SDS011;4306;50.210;10.628;2023-08-24T02:24:26;6.05;;;4.95;;
8536;SDS011;4306;50.210;10.628;2023-08-24T02:26:53;5.30;;;4.45;;
8536;SDS011;4306;50.210;10.628;2023-08-24T02:29:20;5.95;;;4.70;;
8536;SDS011;4306;50.210;10.628;2023-08-24T02:31:48;6.78;;;4.47;;
8536;SDS011;4306;50.210;10.628;2023-08-24T02:34:16;6.38;;;5.13;;
8536;SDS011;4306;50.210;10.628;2023-08-24T02:36:45;7.40;;;5.13;;
8536;SDS011;4306;50.210;10.628;2023-08-24T02:39:12;4.88;;;4.38;;
8536;SDS011;4306;50.210;10.628;2023-08-24T02:41:39;6.90;;;4.30;;
8536;SDS011;4306;50.210;10.628;2023-08-24T02:44:06;6.47;;;4.40;;
8536;SDS011;4306;50.210;10.628;2023-08-24T02:46:33;6.07;;;4.35;;
8536;SDS011;4306;50.210;10.628;2023-08-24T02:49:00;5.72;;;4.55;;
8536;SDS011;4306;50.210;10.628;2023-08-24T02:51:27;6.20;;;4.70;;
8536;SDS011;4306;50.210;10.628;2023-08-24T02:53:57;8.55;;;4.55;;
8536;SDS011;4306;50.210;10.628;2023-08-24T02:56:24;6.53;;;5.13;;
8536;SDS011;4306;50.210;10.628;2023-08-24T02:58:51;8.15;;;4.82;;
8536;SDS011;4306;50.210;10.628;2023-08-24T03:01:19;12.13;;;4.60;;
8536;SDS011;4306;50.210;10.628;2023-08-24T03:03:46;5.20;;;4.70;;
8536;SDS011;4306;50.210;10.628;2023-08-24T03:06:13;7.18;;;4.43;;
8536;SDS011;4306;50.210;10.628;2023-08-24T03:08:40;8.77;;;4.20;;
8536;SDS011;4306;50.210;10.628;2023-08-24T03:11:08;5.32;;;4.40;;
8536;SDS011;4306;50.210;10.628;2023-08-24T03:13:36;5.47;;;4.25;;
8536;SDS011;4306;50.210;10.628;2023-08-24T03:16:04;7.00;;;4.68;;
8536;SDS011;4306;50.210;10.628;2023-08-24T03:18:32;5.78;;;5.10;;
8536;SDS011;4306;50.210;10.628;2023-08-24T03:20:59;4.78;;;4.10;;
8536;SDS011;4306;50.210;10.628;2023-08-24T03:23:26;5.95;;;4.10;;
8536;SDS011;4306;50.210;10.628;2023-08-24T03:25:54;5.22;;;4.53;;
8536;SDS011;4306;50.210;10.628;2023-08-24T03:28:23;6.65;;;5.13;;
8536;SDS011;4306;50.210;10.628;2023-08-24T03:30:50;6.80;;;4.55;;
8536;SDS011;4306;50.210;10.628;2023-08-24T03:33:20;7.25;;;4.32;;
8536;SDS011;4306;50.210;10.628;2023-08-24T03:35:47;5.50;;;4.30;;
8536;SDS011;4306;50.210;10.628;2023-08-24T03:38:14;6.50;;;5.15;;
8536;SDS011;4306;50.210;10.628;2023-08-24T03:40:41;5.95;;;4.75;;
8536;SDS011;4306;50.210;10.628;2023-08-24T03:43:08;7.70;;;4.85;;
8536;SDS011;4306;50.210;10.628;2023-08-24T03:45:37;8.73;;;4.80;;
8536;SDS011;4306;50.210;10.628;2023-08-24T03:48:04;9.13;;;5.45;;
8536;SDS011;4306;50.210;10.628;2023-08-24T03:50:31;6.18;;;5.57;;
8536;SDS011;4306;50.210;10.628;2023-08-24T03:52:59;6.28;;;5.32;;
8536;SDS011;4306;50.210;10.628;2023-08-24T03:55:26;6.55;;;4.57;;
8536;SDS011;4306;50.210;10.628;2023-08-24T03:57:53;6.82;;;5.07;;
8536;SDS011;4306;50.210;10.628;2023-08-24T04:00:20;7.25;;;5.28;;
8536;SDS011;4306;50.210;10.628;2023-08-24T04:02:48;6.07;;;4.65;;
8536;SDS011;4306;50.210;10.628;2023-08-24T04:05:15;6.72;;;5.15;;
8536;SDS011;4306;50.210;10.628;2023-08-24T04:07:42;8.20;;;4.80;;
8536;SDS011;4306;50.210;10.628;2023-08-24T04:10:10;6.55;;;5.32;;
8536;SDS011;4306;50.210;10.628;2023-08-24T04:12:37;7.03;;;5.35;;
8536;SDS011;4306;50.210;10.628;2023-08-24T04:15:05;7.53;;;5.30;;
8536;SDS011;4306;50.210;10.628;2023-08-24T04:17:32;6.68;;;5.07;;
8536;SDS011;4306;50.210;10.628;2023-08-24T04:20:01;10.18;;;5.68;;
8536;SDS011;4306;50.210;10.628;2023-08-24T04:22:29;6.20;;;5.60;;
8536;SDS011;4306;50.210;10.628;2023-08-24T04:24:56;8.65;;;5.53;;
8536;SDS011;4306;50.210;10.628;2023-08-24T04:27:23;10.18;;;5.60;;
8536;SDS011;4306;50.210;10.628;2023-08-24T04:29:50;8.50;;;5.55;;
8536;SDS011;4306;50.210;10.628;2023-08-24T04:32:17;10.07;;;5.63;;
8536;SDS011;4306;50.210;10.628;2023-08-24T04:34:44;7.43;;;5.40;;
8536;SDS011;4306;50.210;10.628;2023-08-24T04:37:12;6.15;;;5.50;;
8536;SDS011;4306;50.210;10.628;2023-08-24T04:39:39;7.97;;;5.60;;
8536;SDS011;4306;50.210;10.628;2023-08-24T04:42:06;13.38;;;5.75;;
8536;SDS011;4306;50.210;10.628;2023-08-24T04:44:33;9.32;;;5.22;;
8536;SDS011;4306;50.210;10.628;2023-08-24T04:47:00;14.95;;;5.15;;
8536;SDS011;4306;50.210;10.628;2023-08-24T04:49:27;8.23;;;4.82;;
8536;SDS011;4306;50.210;10.628;2023-08-24T04:51:56;8.45;;;4.45;;
8536;SDS011;4306;50.210;10.628;2023-08-24T04:54:24;14.88;;;4.70;;
8536;SDS011;4306;50.210;10.628;2023-08-24T04:56:51;16.02;;;4.72;;
8536;SDS011;4306;50.210;10.628;2023-08-24T04:59:18;8.48;;;5.10;;
8536;SDS011;4306;50.210;10.628;2023-08-24T05:01:45;9.48;;;5.10;;
8536;SDS011;4306;50.210;10.628;2023-08-24T05:04:12;9.73;;;5.05;;
8536;SDS011;4306;50.210;10.628;2023-08-24T05:06:39;9.02;;;5.20;;
8536;SDS011;4306;50.210;10.628;2023-08-24T05:09:06;8.45;;;5.88;;
8536;SDS011;4306;50.210;10.628;2023-08-24T05:11:34;7.10;;;6.07;;
8536;SDS011;4306;50.210;10.628;2023-08-24T05:14:01;6.53;;;5.47;;
8536;SDS011;4306;50.210;10.628;2023-08-24T05:16:28;8.57;;;5.57;;
8536;SDS011;4306;50.210;10.628;2023-08-24T05:18:55;8.27;;;5.72;;
8536;SDS011;4306;50.210;10.628;2023-08-24T05:21:22;6.68;;;5.63;;
8536;SDS011;4306;50.210;10.628;2023-08-24T05:23:49;9.73;;;5.60;;
8536;SDS011;4306;50.210;10.628;2023-08-24T05:26:16;7.38;;;5.28;;
8536;SDS011;4306;50.210;10.628;2023-08-24T05:28:49;8.07;;;5.47;;
8536;SDS011;4306;50.210;10.628;2023-08-24T05:31:16;8.90;;;5.32;;
8536;SDS011;4306;50.210;10.628;2023-08-24T05:33:43;9.02;;;5.50;;
8536;SDS011;4306;50.210;10.628;2023-08-24T05:36:10;5.28;;;4.78;;
8536;SDS011;4306;50.210;10.628;2023-08-24T05:38:38;6.65;;;5.05;;
8536;SDS011;4306;50.210;10.628;2023-08-24T05:41:09;5.70;;;5.00;;
8536;SDS011;4306;50.210;10.628;2023-08-24T05:43:36;6.90;;;5.10;;
8536;SDS011;4306;50.210;10.628;2023-08-24T05:46:05;6.70;;;5.05;;
8536;SDS011;4306;50.210;10.628;2023-08-24T05:48:32;8.98;;;5.47;;
8536;SDS011;4306;50.210;10.628;2023-08-24T05:50:59;7.28;;;5.20;;
8536;SDS011;4306;50.210;10.628;2023-08-24T05:53:26;7.88;;;5.68;;
8536;SDS011;4306;50.210;10.628;2023-08-24T05:55:56;6.53;;;4.90;;
8536;SDS011;4306;50.210;10.628;2023-08-24T05:58:24;6.57;;;5.15;;
8536;SDS011;4306;50.210;10.628;2023-08-24T06:00:55;6.13;;;5.18;;
8536;SDS011;4306;50.210;10.628;2023-08-24T06:03:24;6.03;;;5.13;;
8536;SDS011;4306;50.210;10.628;2023-08-24T06:05:51;9.35;;;5.25;;
8536;SDS011;4306;50.210;10.628;2023-08-24T06:08:18;6.18;;;4.60;;
8536;SDS011;4306;50.210;10.628;2023-08-24T06:10:46;6.80;;;4.95;;
8536;SDS011;4306;50.210;10.628;2023-08-24T06:13:12;6.03;;;4.60;;
8536;SDS011;4306;50.210;10.628;2023-08-24T06:15:40;5.32;;;4.47;;
8536;SDS011;4306;50.210;10.628;2023-08-24T06:18:07;6.65;;;4.70;;
8536;SDS011;4306;50.210;10.628;2023-08-24T06:20:36;7.00;;;4.68;;
8536;SDS011;4306;50.210;10.628;2023-08-24T06:23:03;8.13;;;4.38;;
8536;SDS011;4306;50.210;10.628;2023-08-24T06:25:30;6.25;;;4.63;;
8536;SDS011;4306;50.210;10.628;2023-08-24T06:27:57;6.82;;;4.20;;
8536;SDS011;4306;50.210;10.628;2023-08-24T06:30:25;5.60;;;4.18;;
8536;SDS011;4306;50.210;10.628;2023-08-24T06:32:53;7.90;;;4.50;;
8536;SDS011;4306;50.210;10.628;2023-08-24T06:35:20;5.65;;;4.20;;
8536;SDS011;4306;50.210;10.628;2023-08-24T06:37:48;7.97;;;4.60;;
8536;SDS011;4306;50.210;10.628;2023-08-24T06:40:15;5.40;;;4.55;;
8536;SDS011;4306;50.210;10.628;2023-08-24T06:42:42;9.68;;;4.60;;
8536;SDS011;4306;50.210;10.628;2023-08-24T06:45:09;5.10;;;4.43;;
8536;SDS011;4306;50.210;10.628;2023-08-24T06:47:37;5.00;;;4.47;;
8536;SDS011;4306;50.210;10.628;2023-08-24T06:50:04;5.70;;;4.38;;
8536;SDS011;4306;50.210;10.628;2023-08-24T06:52:32;6.30;;;4.25;;
8536;SDS011;4306;50.210;10.628;2023-08-24T06:55:00;5.95;;;4.00;;
8536;SDS011;4306;50.210;10.628;2023-08-24T06:57:28;6.28;;;4.85;;
8536;SDS011;4306;50.210;10.628;2023-08-24T06:59:55;5.53;;;4.60;;
8536;SDS011;4306;50.210;10.628;2023-08-24T07:02:22;5.50;;;4.07;;
8536;SDS011;4306;50.210;10.628;2023-08-24T07:04:51;5.68;;;4.13;;
8536;SDS011;4306;50.210;10.628;2023-08-24T07:07:22;5.07;;;4.20;;
8536;SDS011;4306;50.210;10.628;2023-08-24T07:09:49;6.38;;;4.20;;
8536;SDS011;4306;50.210;10.628;2023-08-24T07:12:17;7.45;;;4.28;;
8536;SDS011;4306;50.210;10.628;2023-08-24T07:14:44;7.38;;;4.35;;
8536;SDS011;4306;50.210;10.628;2023-08-24T07:17:11;7.05;;;5.07;;
8536;SDS011;4306;50.210;10.628;2023-08-24T07:19:38;7.32;;;4.93;;
8536;SDS011;4306;50.210;10.628;2023-08-24T07:22:05;5.20;;;4.32;;
8536;SDS011;4306;50.210;10.628;2023-08-24T07:24:33;6.95;;;4.45;;
8536;SDS011;4306;50.210;10.628;2023-08-24T07:27:01;6.78;;;4.60;;
8536;SDS011;4306;50.210;10.628;2023-08-24T07:29:30;10.40;;;5.10;;
8536;SDS011;4306;50.210;10.628;2023-08-24T07:31:57;7.90;;;5.22;;
8536;SDS011;4306;50.210;10.628;2023-08-24T07:34:24;6.40;;;5.05;;
8536;SDS011;4306;50.210;10.628;2023-08-24T07:36:51;7.78;;;5.03;;
8536;SDS011;4306;50.210;10.628;2023-08-24T07:39:19;5.78;;;4.57;;
8536;SDS011;4306;50.210;10.628;2023-08-24T07:41:46;5.40;;;4.72;;
8536;SDS011;4306;50.210;10.628;2023-08-24T07:44:13;6.80;;;4.82;;
8536;SDS011;4306;50.210;10.628;2023-08-24T07:46:41;5.43;;;4.43;;
8536;SDS011;4306;50.210;10.628;2023-08-24T07:49:08;5.75;;;4.38;;
8536;SDS011;4306;50.210;10.628;2023-08-24T07:51:35;5.22;;;4.55;;
8536;SDS011;4306;50.210;10.628;2023-08-24T07:54:02;5.20;;;4.70;;
8536;SDS011;4306;50.210;10.628;2023-08-24T07:56:32;6.07;;;4.53;;
8536;SDS011;4306;50.210;10.628;2023-08-24T07:58:59;6.13;;;4.43;;
8536;SDS011;4306;50.210;10.628;2023-08-24T08:01:26;10.32;;;4.05;;
8536;SDS011;4306;50.210;10.628;2023-08-24T08:03:54;14.80;;;4.50;;
8536;SDS011;4306;50.210;10.628;2023-08-24T08:06:21;4.75;;;3.90;;
8536;SDS011;4306;50.210;10.628;2023-08-24T08:08:49;6.50;;;4.28;;
8536;SDS011;4306;50.210;10.628;2023-08-24T08:11:16;8.68;;;4.25;;
8536;SDS011;4306;50.210;10.628;2023-08-24T08:13:44;5.53;;;4.18;;
8536;SDS011;4306;50.210;10.628;2023-08-24T08:16:11;6.13;;;3.92;;
8536;SDS011;4306;50.210;10.628;2023-08-24T08:18:38;4.75;;;3.60;;
8536;SDS011;4306;50.210;10.628;2023-08-24T08:21:09;5.47;;;3.35;;
8536;SDS011;4306;50.210;10.628;2023-08-24T08:23:37;6.70;;;3.38;;
8536;SDS011;4306;50.210;10.628;2023-08-24T08:26:04;5.88;;;3.92;;
8536;SDS011;4306;50.210;10.628;2023-08-24T08:28:34;4.20;;;3.47;;
8536;SDS011;4306;50.210;10.628;2023-08-24T08:31:01;5.22;;;3.60;;
8536;SDS011;4306;50.210;10.628;2023-08-24T08:33:28;6.15;;;3.45;;
8536;SDS011;4306;50.210;10.628;2023-08-24T08:35:55;7.00;;;3.55;;
8536;SDS011;4306;50.210;10.628;2023-08-24T08:38:23;7.45;;;3.63;;
8536;SDS011;4306;50.210;10.628;2023-08-24T08:40:52;5.95;;;3.58;;
8536;SDS011;4306;50.210;10.628;2023-08-24T08:43:22;8.93;;;3.45;;
8536;SDS011;4306;50.210;10.628;2023-08-24T08:45:49;5.28;;;3.63;;
8536;SDS011;4306;50.210;10.628;2023-08-24T08:48:18;5.57;;;3.20;;
8536;SDS011;4306;50.210;10.628;2023-08-24T08:50:47;5.50;;;3.33;;
8536;SDS011;4306;50.210;10.628;2023-08-24T08:53:15;3.75;;;3.03;;
8536;SDS011;4306;50.210;10.628;2023-08-24T08:55:44;6.88;;;3.53;;
8536;SDS011;4306;50.210;10.628;2023-08-24T08:58:11;8.27;;;3.40;;
8536;SDS011;4306;50.210;10.628;2023-08-24T09:00:39;7.40;;;3.38;;
8536;SDS011;4306;50.210;10.628;2023-08-24T09:03:07;4.80;;;3.38;;
8536;SDS011;4306;50.210;10.628;2023-08-24T09:05:35;5.95;;;3.45;;
8536;SDS011;4306;50.210;10.628;2023-08-24T09:08:04;6.93;;;3.35;;
8536;SDS011;4306;50.210;10.628;2023-08-24T09:10:32;7.75;;;3.22;;
8536;SDS011;4306;50.210;10.628;2023-08-24T09:13:00;4.68;;;3.13;;
8536;SDS011;4306;50.210;10.628;2023-08-24T09:15:27;5.72;;;3.35;;
8536;SDS011;4306;50.210;10.628;2023-08-24T09:18:01;10.70;;;3.63;;
8536;SDS011;4306;50.210;10.628;2023-08-24T09:20:28;5.82;;;3.42;;
8536;SDS011;4306;50.210;10.628;2023-08-24T09:22:56;6.78;;;3.30;;
8536;SDS011;4306;50.210;10.628;2023-08-24T09:25:23;6.75;;;3.33;;
8536;SDS011;4306;50.210;10.628;2023-08-24T09:27:56;6.90;;;3.60;;
8536;SDS011;4306;50.210;10.628;2023-08-24T09:30:24;9.35;;;3.83;;
8536;SDS011;4306;50.210;10.628;2023-08-24T09:32:56;13.43;;;4.05;;
8536;SDS011;4306;50.210;10.628;2023-08-24T09:35:27;16.13;;;4.47;;
8536;SDS011;4306;50.210;10.628;2023-08-24T09:37:54;13.13;;;3.75;;
8536;SDS011;4306;50.210;10.628;2023-08-24T09:40:23;4.97;;;3.30;;
8536;SDS011;4306;50.210;10.628;2023-08-24T09:42:51;8.48;;;3.17;;
8536;SDS011;4306;50.210;10.628;2023-08-24T09:45:18;8.15;;;3.45;;
8536;SDS011;4306;50.210;10.628;2023-08-24T09:47:48;11.13;;;3.40;;
8536;SDS011;4306;50.210;10.628;2023-08-24T09:50:17;10.07;;;3.92;;
8536;SDS011;4306;50.210;10.628;2023-08-24T09:52:44;11.50;;;2.85;;
8536;SDS011;4306;50.210;10.628;2023-08-24T09:55:14;7.13;;;2.95;;
8536;SDS011;4306;50.210;10.628;2023-08-24T09:57:46;9.88;;;3.67;;
8536;SDS011;4306;50.210;10.628;2023-08-24T10:00:14;4.90;;;2.72;;
8536;SDS011;4306;50.210;10.628;2023-08-24T10:02:49;9.80;;;3.53;;
8536;SDS011;4306;50.210;10.628;2023-08-24T10:05:19;5.07;;;2.70;;
8536;SDS011;4306;50.210;10.628;2023-08-24T10:07:48;3.45;;;2.90;;
8536;SDS011;4306;50.210;10.628;2023-08-24T10:10:19;7.00;;;3.33;;
8536;SDS011;4306;50.210;10.628;2023-08-24T10:12:51;8.55;;;3.13;;
8536;SDS011;4306;50.210;10.628;2023-08-24T10:15:22;7.63;;;3.45;;
8536;SDS011;4306;50.210;10.628;2023-08-24T10:17:51;4.75;;;3.05;;
8536;SDS011;4306;50.210;10.628;2023-08-24T10:20:19;6.72;;;3.17;;
8536;SDS011;4306;50.210;10.628;2023-08-24T10:22:47;4.80;;;2.80;;
8536;SDS011;4306;50.210;10.628;2023-08-24T10:25:15;6.45;;;2.90;;
8536;SDS011;4306;50.210;10.628;2023-08-24T10:27:43;4.88;;;2.80;;
8536;SDS011;4306;50.210;10.628;2023-08-24T10:30:13;6.38;;;2.80;;
8536;SDS011;4306;50.210;10.628;2023-08-24T10:32:40;5.20;;;3.05;;
8536;SDS011;4306;50.210;10.628;2023-08-24T10:35:12;5.05;;;2.88;;
8536;SDS011;4306;50.210;10.628;2023-08-24T10:37:40;7.53;;;2.95;;
8536;SDS011;4306;50.210;10.628;2023-08-24T10:40:11;5.45;;;2.70;;
8536;SDS011;4306;50.210;10.628;2023-08-24T10:42:45;7.65;;;3.15;;
8536;SDS011;4306;50.210;10.628;2023-08-24T10:45:13;3.55;;;2.67;;
8536;SDS011;4306;50.210;10.628;2023-08-24T10:47:44;6.93;;;2.72;;
8536;SDS011;4306;50.210;10.628;2023-08-24T10:50:13;5.10;;;2.72;;
8536;SDS011;4306;50.210;10.628;2023-08-24T10:52:42;4.78;;;2.53;;
8536;SDS011;4306;50.210;10.628;2023-08-24T10:55:21;7.32;;;2.40;;
8536;SDS011;4306;50.210;10.628;2023-08-24T10:57:55;5.95;;;2.47;;
8536;SDS011;4306;50.210;10.628;2023-08-24T11:00:24;4.90;;;2.58;;
8536;SDS011;4306;50.210;10.628;2023-08-24T11:02:52;3.45;;;2.60;;
8536;SDS011;4306;50.210;10.628;2023-08-24T11:05:21;6.03;;;2.63;;
8536;SDS011;4306;50.210;10.628;2023-08-24T11:07:53;6.57;;;2.83;;
8536;SDS011;4306;50.210;10.628;2023-08-24T11:10:21;5.07;;;2.45;;
8536;SDS011;4306;50.210;10.628;2023-08-24T11:13:08;3.65;;;2.10;;
8536;SDS011;4306;50.210;10.628;2023-08-24T11:15:39;6.28;;;3.10;;
8536;SDS011;4306;50.210;10.628;2023-08-24T11:18:20;5.13;;;2.85;;
8536;SDS011;4306;50.210;10.628;2023-08-24T11:20:50;5.03;;;2.75;;
8536;SDS011;4306;50.210;10.628;2023-08-24T11:23:19;4.90;;;2.55;;
8536;SDS011;4306;50.210;10.628;2023-08-24T11:25:46;4.78;;;2.65;;
8536;SDS011;4306;50.210;10.628;2023-08-24T11:28:17;4.32;;;2.58;;
8536;SDS011;4306;50.210;10.628;2023-08-24T11:30:45;3.80;;;2.38;;
8536;SDS011;4306;50.210;10.628;2023-08-24T11:33:12;4.22;;;2.70;;
8536;SDS011;4306;50.210;10.628;2023-08-24T11:35:41;6.07;;;2.70;;
8536;SDS011;4306;50.210;10.628;2023-08-24T11:38:11;5.03;;;2.58;;
8536;SDS011;4306;50.210;10.628;2023-08-24T11:40:38;4.90;;;2.70;;
8536;SDS011;4306;50.210;10.628;2023-08-24T11:43:05;7.20;;;2.70;;
8536;SDS011;4306;50.210;10.628;2023-08-24T11:45:33;6.05;;;2.88;;
8536;SDS011;4306;50.210;10.628;2023-08-24T11:48:03;4.30;;;2.75;;
8536;SDS011;4306;50.210;10.628;2023-08-24T11:50:31;4.13;;;2.75;;
8536;SDS011;4306;50.210;10.628;2023-08-24T11:53:00;5.65;;;2.58;;
8536;SDS011;4306;50.210;10.628;2023-08-24T11:55:29;5.75;;;3.03;;
8536;SDS011;4306;50.210;10.628;2023-08-24T11:57:56;6.55;;;3.13;;
8536;SDS011;4306;50.210;10.628;2023-08-24T12:00:23;6.10;;;2.72;;
8536;SDS011;4306;50.210;10.628;2023-08-24T12:02:51;5.07;;;2.70;;
8536;SDS011;4306;50.210;10.628;2023-08-24T12:05:19;4.50;;;2.90;;
8536;SDS011;4306;50.210;10.628;2023-08-24T12:07:48;3.88;;;2.60;;
8536;SDS011;4306;50.210;10.628;2023-08-24T12:10:15;6.43;;;2.80;;
8536;SDS011;4306;50.210;10.628;2023-08-24T12:12:44;3.90;;;2.70;;
8536;SDS011;4306;50.210;10.628;2023-08-24T12:15:17;6.72;;;3.20;;
8536;SDS011;4306;50.210;10.628;2023-08-24T12:17:46;7.53;;;4.10;;
8536;SDS011;4306;50.210;10.628;2023-08-24T12:20:18;10.35;;;6.93;;
8536;SDS011;4306;50.210;10.628;2023-08-24T12:22:50;6.32;;;3.50;;
8536;SDS011;4306;50.210;10.628;2023-08-24T12:25:18;11.13;;;9.95;;
8536;SDS011;4306;50.210;10.628;2023-08-24T12:27:49;6.93;;;4.78;;
8536;SDS011;4306;50.210;10.628;2023-08-24T12:30:17;5.75;;;3.22;;
8536;SDS011;4306;50.210;10.628;2023-08-24T12:32:44;3.55;;;2.67;;
8536;SDS011;4306;50.210;10.628;2023-08-24T12:35:13;6.45;;;3.28;;
8536;SDS011;4306;50.210;10.628;2023-08-24T12:37:41;7.10;;;3.03;;
8536;SDS011;4306;50.210;10.628;2023-08-24T12:40:08;5.45;;;3.10;;
8536;SDS011;4306;50.210;10.628;2023-08-24T12:42:35;4.57;;;3.00;;
8536;SDS011;4306;50.210;10.628;2023-08-24T12:45:05;5.40;;;2.85;;
8536;SDS011;4306;50.210;10.628;2023-08-24T12:47:33;4.10;;;2.53;;
8536;SDS011;4306;50.210;10.628;2023-08-24T12:50:03;5.72;;;2.67;;
8536;SDS011;4306;50.210;10.628;2023-08-24T12:52:32;5.35;;;2.88;;
8536;SDS011;4306;50.210;10.628;2023-08-24T12:54:59;5.15;;;3.25;;
8536;SDS011;4306;50.210;10.628;2023-08-24T12:57:26;5.63;;;3.20;;
8536;SDS011;4306;50.210;10.628;2023-08-24T12:59:53;8.38;;;3.05;;
8536;SDS011;4306;50.210;10.628;2023-08-24T13:02:21;4.97;;;2.58;;
8536;SDS011;4306;50.210;10.628;2023-08-24T13:04:48;5.20;;;2.78;;
8536;SDS011;4306;50.210;10.628;2023-08-24T13:07:15;6.50;;;3.65;;
8536;SDS011;4306;50.210;10.628;2023-08-24T13:09:42;7.05;;;3.70;;
8536;SDS011;4306;50.210;10.628;2023-08-24T13:12:09;4.10;;;2.67;;
8536;SDS011;4306;50.210;10.628;2023-08-24T13:14:36;13.98;;;9.77;;
8536;SDS011;4306;50.210;10.628;2023-08-24T13:17:03;5.13;;;3.00;;
8536;SDS011;4306;50.210;10.628;2023-08-24T13:19:31;5.95;;;2.80;;
8536;SDS011;4306;50.210;10.628;2023-08-24T13:21:58;4.93;;;3.00;;
8536;SDS011;4306;50.210;10.628;2023-08-24T13:24:25;5.65;;;3.40;;
8536;SDS011;4306;50.210;10.628;2023-08-24T13:26:52;6.25;;;3.22;;
8536;SDS011;4306;50.210;10.628;2023-08-24T13:29:19;5.78;;;3.00;;
8536;SDS011;4306;50.210;10.628;2023-08-24T13:31:46;5.75;;;3.15;;
8536;SDS011;4306;50.210;10.628;2023-08-24T13:34:13;4.43;;;2.60;;
8536;SDS011;4306;50.210;10.628;2023-08-24T13:36:42;6.65;;;3.45;;
8536;SDS011;4306;50.210;10.628;2023-08-24T13:39:09;5.70;;;3.17;;
8536;SDS011;4306;50.210;10.628;2023-08-24T13:41:36;5.25;;;2.55;;
8536;SDS011;4306;50.210;10.628;2023-08-24T13:44:03;11.43;;;2.88;;
8536;SDS011;4306;50.210;10.628;2023-08-24T13:46:30;5.13;;;2.75;;
8536;SDS011;4306;50.210;10.628;2023-08-24T13:48:57;8.68;;;2.92;;
8536;SDS011;4306;50.210;10.628;2023-08-24T13:51:24;6.80;;;3.17;;
8536;SDS011;4306;50.210;10.628;2023-08-24T13:53:52;4.88;;;2.88;;
8536;SDS011;4306;50.210;10.628;2023-08-24T13:56:19;6.05;;;2.85;;
8536;SDS011;4306;50.210;10.628;2023-08-24T13:58:46;5.30;;;3.40;;
8536;SDS011;4306;50.210;10.628;2023-08-24T14:01:13;4.60;;;3.17;;
8536;SDS011;4306;50.210;10.628;2023-08-24T14:03:40;5.63;;;3.15;;
8536;SDS011;4306;50.210;10.628;2023-08-24T14:06:08;4.70;;;3.00;;
8536;SDS011;4306;50.210;10.628;2023-08-24T14:08:36;4.72;;;2.97;;
8536;SDS011;4306;50.210;10.628;2023-08-24T14:11:04;6.43;;;3.67;;
8536;SDS011;4306;50.210;10.628;2023-08-24T14:13:31;4.47;;;2.90;;
8536;SDS011;4306;50.210;10.628;2023-08-24T14:15:58;3.65;;;2.78;;
8536;SDS011;4306;50.210;10.628;2023-08-24T14:18:25;5.97;;;3.20;;
8536;SDS011;4306;50.210;10.628;2023-08-24T14:20:53;9.10;;;2.92;;
8536;SDS011;4306;50.210;10.628;2023-08-24T14:23:20;8.13;;;3.03;;
8536;SDS011;4306;50.210;10.628;2023-08-24T14:25:47;4.65;;;3.20;;
8536;SDS011;4306;50.210;10.628;2023-08-24T14:28:19;6.90;;;2.90;;
8536;SDS011;4306;50.210;10.628;2023-08-24T14:30:47;7.15;;;2.97;;
8536;SDS011;4306;50.210;10.628;2023-08-24T14:33:14;5.10;;;3.20;;
8536;SDS011;4306;50.210;10.628;2023-08-24T14:35:48;8.50;;;3.33;;
8536;SDS011;4306;50.210;10.628;2023-08-24T14:38:16;5.53;;;2.97;;
8536;SDS011;4306;50.210;10.628;2023-08-24T14:40:44;4.43;;;3.13;;
8536;SDS011;4306;50.210;10.628;2023-08-24T14:43:11;6.72;;;3.15;;
8536;SDS011;4306;50.210;10.628;2023-08-24T14:45:39;4.63;;;3.40;;
8536;SDS011;4306;50.210;10.628;2023-08-24T14:48:06;5.35;;;2.95;;
8536;SDS011;4306;50.210;10.628;2023-08-24T14:50:33;5.97;;;3.20;;
8536;SDS011;4306;50.210;10.628;2023-08-24T14:53:04;5.47;;;3.45;;
8536;SDS011;4306;50.210;10.628;2023-08-24T14:55:32;4.97;;;3.30;;
8536;SDS011;4306;50.210;10.628;2023-08-24T14:57:59;4.93;;;3.15;;
8536;SDS011;4306;50.210;10.628;2023-08-24T15:00:26;6.82;;;2.85;;
8536;SDS011;4306;50.210;10.628;2023-08-24T15:02:54;4.47;;;2.90;;
8536;SDS011;4306;50.210;10.628;2023-08-24T15:05:21;5.97;;;3.10;;